createdAt,value
2022-09-15T00:01:58.201Z,14.76
2022-09-15T00:04:26.372Z,14.74
2022-09-15T00:06:54.483Z,14.77
2022-09-15T00:09:22.560Z,14.77
2022-09-15T00:11:50.758Z,14.81
2022-09-15T00:14:18.864Z,14.81
2022-09-15T00:16:47.008Z,14.78
2022-09-15T00:19:15.595Z,14.79
2022-09-15T00:21:43.847Z,14.80
2022-09-15T00:24:11.840Z,14.83
2022-09-15T00:26:39.918Z,14.86
2022-09-15T00:29:09.017Z,14.87
2022-09-15T00:31:37.379Z,14.87
2022-09-15T00:34:07.252Z,14.77
2022-09-15T00:36:35.395Z,14.69
2022-09-15T00:39:06.401Z,14.73
2022-09-15T00:41:34.968Z,14.72
2022-09-15T00:44:25.303Z,14.73
2022-09-15T00:47:15.673Z,14.67
2022-09-15T00:49:49.495Z,14.66
2022-09-15T00:52:36.347Z,14.65
2022-09-15T00:55:10.425Z,14.59
2022-09-15T00:57:50.579Z,14.52
2022-09-15T01:00:22.124Z,14.56
2022-09-15T01:02:51.009Z,14.49
2022-09-15T01:05:25.935Z,14.49
2022-09-15T01:07:59.324Z,14.46
2022-09-15T01:10:34.183Z,14.45
2022-09-15T01:13:05.740Z,14.46
2022-09-15T01:15:48.552Z,14.41
2022-09-15T01:18:32.530Z,14.37
2022-09-15T01:21:38.248Z,14.36
2022-09-15T01:24:09.275Z,14.34
2022-09-15T01:26:54.130Z,14.34
2022-09-15T01:29:44.212Z,14.38
2022-09-15T01:32:45.241Z,14.36
2022-09-15T01:35:28.251Z,14.43
2022-09-15T01:38:03.900Z,14.46
2022-09-15T01:40:45.703Z,14.43
2022-09-15T01:43:17.072Z,14.44
2022-09-15T01:45:48.475Z,14.45
2022-09-15T01:48:20.365Z,14.51
2022-09-15T01:50:53.210Z,14.55
2022-09-15T01:53:23.011Z,14.54
2022-09-15T01:55:56.496Z,14.58
2022-09-15T01:58:24.628Z,14.58
2022-09-15T02:01:16.354Z,14.56
2022-09-15T02:03:50.536Z,14.52
2022-09-15T02:06:21.996Z,14.56
2022-09-15T02:08:57.499Z,14.61
2022-09-15T02:11:28.196Z,14.58
2022-09-15T02:14:33.972Z,14.60
2022-09-15T02:17:05.572Z,14.65
2022-09-15T02:19:41.911Z,14.64
2022-09-15T02:22:13.421Z,14.72
2022-09-15T02:24:50.105Z,14.66
2022-09-15T02:27:24.265Z,14.71
2022-09-15T02:29:56.299Z,14.73
2022-09-15T02:32:28.753Z,14.81
2022-09-15T02:34:58.806Z,14.86
2022-09-15T02:37:27.771Z,14.86
2022-09-15T02:40:00.863Z,14.74
2022-09-15T02:42:31.327Z,14.79
2022-09-15T02:45:00.930Z,14.77
2022-09-15T02:47:29.493Z,14.77
2022-09-15T02:49:57.577Z,14.69
2022-09-15T02:52:26.469Z,14.73
2022-09-15T02:54:54.502Z,14.74
2022-09-15T02:57:22.721Z,14.81
2022-09-15T03:00:09.541Z,14.85
2022-09-15T03:02:37.851Z,14.88
2022-09-15T03:05:08.354Z,14.87
2022-09-15T03:07:38.186Z,14.90
2022-09-15T03:10:08.381Z,14.91
2022-09-15T03:12:47.683Z,14.97
2022-09-15T03:15:18.224Z,14.97
2022-09-15T03:17:48.093Z,14.99
2022-09-15T03:20:20.169Z,14.97
2022-09-15T03:22:49.695Z,15.01
2022-09-15T03:25:18.469Z,14.99
2022-09-15T03:27:47.390Z,15.00
2022-09-15T03:30:15.717Z,15.05
2022-09-15T03:32:44.034Z,15.10
2022-09-15T03:35:11.986Z,15.18
2022-09-15T03:37:40.171Z,15.07
2022-09-15T03:40:10.827Z,15.16
2022-09-15T03:42:39.236Z,15.12
2022-09-15T03:45:09.193Z,15.16
2022-09-15T03:47:37.285Z,15.16
2022-09-15T03:50:06.914Z,15.19
2022-09-15T03:52:34.995Z,15.13
2022-09-15T03:55:03.058Z,15.19
2022-09-15T03:57:31.036Z,15.29
2022-09-15T04:00:00.107Z,15.28
2022-09-15T04:02:28.066Z,15.28
2022-09-15T04:04:56.215Z,15.33
2022-09-15T04:07:24.301Z,15.39
2022-09-15T04:09:52.712Z,15.46
2022-09-15T04:12:20.694Z,15.41
2022-09-15T04:14:48.683Z,15.46
2022-09-15T04:17:16.876Z,15.50
2022-09-15T04:19:44.841Z,15.55
2022-09-15T04:22:17.516Z,15.54
2022-09-15T04:24:51.936Z,15.58
2022-09-15T04:27:20.010Z,15.56
2022-09-15T04:29:52.381Z,15.55
2022-09-15T04:32:20.815Z,15.64
2022-09-15T04:34:49.216Z,15.65
2022-09-15T04:37:19.117Z,15.61
2022-09-15T04:39:48.026Z,15.63
2022-09-15T04:42:17.494Z,15.66
2022-09-15T04:44:45.515Z,15.57
2022-09-15T04:47:13.622Z,15.65
2022-09-15T04:49:42.139Z,15.69
2022-09-15T04:52:10.298Z,15.64
2022-09-15T04:54:38.365Z,15.71
2022-09-15T04:57:06.966Z,15.74
2022-09-15T04:59:37.132Z,15.73
2022-09-15T05:02:05.278Z,15.79
2022-09-15T05:04:33.695Z,15.88
2022-09-15T05:07:03.858Z,15.94
2022-09-15T05:09:31.943Z,15.99
2022-09-15T05:12:03.055Z,16.04
2022-09-15T05:14:33.439Z,16.08
2022-09-15T05:17:02.010Z,16.13
2022-09-15T05:19:30.260Z,16.16
2022-09-15T05:21:58.643Z,16.14
2022-09-15T05:24:29.579Z,16.17
2022-09-15T05:26:57.696Z,16.24
2022-09-15T05:29:26.016Z,16.26
2022-09-15T05:31:54.091Z,16.33
2022-09-15T05:34:22.099Z,16.34
2022-09-15T05:36:50.400Z,16.28
2022-09-15T05:39:18.585Z,16.34
2022-09-15T05:41:46.575Z,16.36
2022-09-15T05:44:14.661Z,16.42
2022-09-15T05:46:44.834Z,16.47
2022-09-15T05:49:13.220Z,16.49
2022-09-15T05:51:42.189Z,16.43
2022-09-15T05:54:10.885Z,16.52
2022-09-15T05:56:38.953Z,16.63
2022-09-15T05:59:07.235Z,16.63
2022-09-15T06:01:38.160Z,16.64
2022-09-15T06:04:06.451Z,16.69
2022-09-15T06:06:39.683Z,16.79
2022-09-15T06:09:08.134Z,16.85
2022-09-15T06:11:40.580Z,16.92
2022-09-15T06:14:08.788Z,16.97
2022-09-15T06:16:37.338Z,17.06
2022-09-15T06:19:06.143Z,17.11
2022-09-15T06:21:37.674Z,17.20
2022-09-15T06:24:07.546Z,17.22
2022-09-15T06:26:35.815Z,17.24
2022-09-15T06:29:05.634Z,17.27
2022-09-15T06:31:35.915Z,17.26
2022-09-15T06:34:05.591Z,17.27
2022-09-15T06:36:34.003Z,17.31
2022-09-15T06:39:05.178Z,17.38
2022-09-15T06:41:58.381Z,17.52
2022-09-15T06:44:22.482Z,17.64
2022-09-15T06:46:51.027Z,17.80
2022-09-15T06:49:20.733Z,17.92
2022-09-15T06:51:49.036Z,18.13
2022-09-15T06:54:17.518Z,18.44
2022-09-15T06:56:47.365Z,18.64
2022-09-15T06:59:20.009Z,18.74
2022-09-15T07:01:54.753Z,19.03
2022-09-15T07:04:23.508Z,19.24
2022-09-15T07:06:54.371Z,19.45
2022-09-15T07:09:22.787Z,19.66
2022-09-15T07:11:53.360Z,19.83
2022-09-15T07:14:23.692Z,20.03
2022-09-15T07:16:52.749Z,20.16
2022-09-15T07:19:21.090Z,20.32
2022-09-15T07:21:50.597Z,20.44
2022-09-15T07:24:19.779Z,20.64
2022-09-15T07:26:48.375Z,20.73
2022-09-15T07:29:17.003Z,20.85
2022-09-15T07:31:45.294Z,20.94
2022-09-15T07:34:13.993Z,21.00
2022-09-15T07:36:43.293Z,20.87
2022-09-15T07:39:12.036Z,20.76
2022-09-15T07:41:40.381Z,20.70
2022-09-15T07:44:12.127Z,20.60
2022-09-15T07:46:40.471Z,20.52
2022-09-15T07:49:10.714Z,20.48
2022-09-15T07:51:38.825Z,20.28
2022-09-15T07:54:07.741Z,20.36
2022-09-15T07:56:36.178Z,20.41
2022-09-15T07:59:08.161Z,20.38
2022-09-15T08:01:36.327Z,20.48
2022-09-15T08:04:04.947Z,20.50
2022-09-15T08:06:34.004Z,20.46
2022-09-15T08:09:02.505Z,20.57
2022-09-15T08:11:33.433Z,20.68
2022-09-15T08:14:03.875Z,20.75
2022-09-15T08:16:34.478Z,20.78
2022-09-15T08:19:04.329Z,20.80
2022-09-15T08:21:38.152Z,20.88
2022-09-15T08:24:06.527Z,20.94
2022-09-15T08:26:38.477Z,20.98
2022-09-15T08:29:07.619Z,21.10
2022-09-15T08:31:35.836Z,21.11
2022-09-15T08:34:07.404Z,21.15
2022-09-15T08:36:35.686Z,21.13
2022-09-15T08:39:05.231Z,21.25
2022-09-15T08:41:43.353Z,21.29
2022-09-15T08:44:35.199Z,21.37
2022-09-15T08:47:27.447Z,21.43
2022-09-15T08:49:59.424Z,21.50
2022-09-15T08:52:38.744Z,21.53
2022-09-15T08:55:14.909Z,21.58
2022-09-15T08:57:43.252Z,21.61
2022-09-15T09:00:16.963Z,21.66
2022-09-15T09:03:03.668Z,21.71
2022-09-15T09:05:53.519Z,21.73
2022-09-15T09:08:53.066Z,21.62
2022-09-15T09:11:25.227Z,21.63
2022-09-15T09:14:25.825Z,21.74
2022-09-15T09:17:18.210Z,21.80
2022-09-15T09:20:12.091Z,21.90
2022-09-15T09:22:44.249Z,21.82
2022-09-15T09:25:27.137Z,21.91
2022-09-15T09:28:02.383Z,21.95
2022-09-15T09:30:33.745Z,21.98
2022-09-15T09:33:26.359Z,21.99
2022-09-15T09:35:54.593Z,22.00
2022-09-15T09:38:32.011Z,22.01
2022-09-15T09:41:02.513Z,22.09
2022-09-15T09:43:31.904Z,22.23
2022-09-15T09:46:02.780Z,22.20
2022-09-15T09:48:32.527Z,22.31
2022-09-15T09:51:00.746Z,22.48
2022-09-15T09:53:34.246Z,22.57
2022-09-15T09:56:25.052Z,22.67
2022-09-15T09:58:55.022Z,23.04
2022-09-15T10:01:26.989Z,23.41
2022-09-15T10:04:30.917Z,23.72
2022-09-15T10:07:00.117Z,23.46
2022-09-15T10:09:33.466Z,23.41
2022-09-15T10:12:04.490Z,23.53
2022-09-15T10:14:33.117Z,23.15
2022-09-15T10:17:16.497Z,23.28
2022-09-15T10:20:07.531Z,23.28
2022-09-15T10:22:41.102Z,23.26
2022-09-15T10:25:55.178Z,23.27
2022-09-15T10:28:26.989Z,23.16
2022-09-15T10:31:25.845Z,23.31
2022-09-15T10:33:54.403Z,23.43
2022-09-15T10:36:34.565Z,23.61
2022-09-15T10:39:23.472Z,23.87
2022-09-15T10:42:07.480Z,24.25
2022-09-15T10:44:49.018Z,24.45
2022-09-15T10:47:38.901Z,24.35
2022-09-15T10:50:25.347Z,24.11
2022-09-15T10:53:06.266Z,24.45
2022-09-15T10:55:58.367Z,24.68
2022-09-15T10:58:35.487Z,24.72
2022-09-15T11:01:09.631Z,24.87
2022-09-15T11:03:49.265Z,24.83
2022-09-15T11:06:23.662Z,24.88
2022-09-15T11:09:04.347Z,24.90
2022-09-15T11:12:00.464Z,24.94
2022-09-15T11:14:58.856Z,25.10
2022-09-15T11:17:44.143Z,25.48
2022-09-15T11:20:40.277Z,25.72
2022-09-15T11:23:20.869Z,25.70
2022-09-15T11:25:57.281Z,25.68
2022-09-15T11:29:00.899Z,25.59
2022-09-15T11:31:40.304Z,25.64
2022-09-15T11:34:34.161Z,25.71
2022-09-15T11:37:24.551Z,25.61
2022-09-15T11:40:22.001Z,25.68
2022-09-15T11:43:17.138Z,25.62
2022-09-15T11:45:57.766Z,25.73
2022-09-15T11:48:52.821Z,25.96
2022-09-15T11:51:28.084Z,26.05
2022-09-15T11:54:14.693Z,26.56
2022-09-15T11:56:48.548Z,26.66
2022-09-15T11:59:47.883Z,26.62
2022-09-15T12:02:38.710Z,26.61
2022-09-15T12:05:33.253Z,26.84
2022-09-15T12:08:17.511Z,26.65
2022-09-15T12:10:49.155Z,27.04
2022-09-15T12:13:20.615Z,27.25
2022-09-15T12:15:50.756Z,27.45
2022-09-15T12:18:42.898Z,27.91
2022-09-15T12:21:30.640Z,28.33
2022-09-15T12:24:14.211Z,28.65
2022-09-15T12:26:46.795Z,29.11
2022-09-15T12:29:27.561Z,29.13
2022-09-15T12:32:21.982Z,29.03
2022-09-15T12:35:18.513Z,29.28
2022-09-15T12:37:47.668Z,29.51
2022-09-15T12:40:33.579Z,29.46
2022-09-15T12:43:16.557Z,29.18
2022-09-15T12:46:00.952Z,28.86
2022-09-15T12:48:34.358Z,29.07
2022-09-15T12:51:10.663Z,29.06
2022-09-15T12:53:57.015Z,28.73
2022-09-15T12:56:31.507Z,28.41
2022-09-15T12:59:07.847Z,28.26
2022-09-15T13:01:49.960Z,28.28
2022-09-15T13:04:52.978Z,28.11
2022-09-15T13:07:52.104Z,27.87
2022-09-15T13:10:31.111Z,27.94
2022-09-15T13:13:12.750Z,28.04
2022-09-15T13:15:48.923Z,28.39
2022-09-15T13:18:19.369Z,28.50
2022-09-15T13:20:57.732Z,28.70
2022-09-15T13:23:29.901Z,28.64
2022-09-15T13:26:00.441Z,28.22
2022-09-15T13:28:31.705Z,28.27
2022-09-15T13:31:20.350Z,27.92
2022-09-15T13:40:46.028Z,26.50
2022-09-15T13:43:38.722Z,26.38
2022-09-15T13:46:41.550Z,26.38
2022-09-15T13:49:38.147Z,26.41
2022-09-15T13:52:31.257Z,26.26
2022-09-15T13:55:19.647Z,26.02
2022-09-15T14:00:58.692Z,26.05
2022-09-15T14:04:06.044Z,26.01
2022-09-15T14:06:39.225Z,25.90
2022-09-15T14:09:17.773Z,25.89
2022-09-15T14:11:56.739Z,25.84
2022-09-15T14:14:28.114Z,26.11
2022-09-15T14:16:57.283Z,26.10
2022-09-15T14:19:39.805Z,26.38
2022-09-15T14:22:31.052Z,26.51
2022-09-15T14:25:06.344Z,26.35
2022-09-15T14:27:44.978Z,26.28
2022-09-15T14:30:21.790Z,26.28
2022-09-15T14:33:19.193Z,26.21
2022-09-15T14:35:48.425Z,26.17
2022-09-15T14:38:24.855Z,26.18
2022-09-15T14:40:57.514Z,26.34
2022-09-15T14:43:35.700Z,26.24
2022-09-15T14:46:18.688Z,26.05
2022-09-15T14:48:47.230Z,25.88
2022-09-15T14:51:23.889Z,25.73
2022-09-15T14:53:58.064Z,25.74
2022-09-15T14:56:31.333Z,25.69
2022-09-15T14:59:05.576Z,25.56
2022-09-15T15:01:36.857Z,25.42
2022-09-15T15:04:42.978Z,25.30
2022-09-15T15:07:20.117Z,25.18
2022-09-15T15:10:00.805Z,25.12
2022-09-15T15:12:36.249Z,25.06
2022-09-15T15:15:05.659Z,25.11
2022-09-15T15:17:42.152Z,25.12
2022-09-15T15:20:10.306Z,25.14
2022-09-15T15:22:40.486Z,25.21
2022-09-15T15:25:29.916Z,25.28
2022-09-15T15:27:59.623Z,25.40
2022-09-15T15:31:06.239Z,25.43
2022-09-15T15:33:34.413Z,25.31
2022-09-15T15:36:11.975Z,25.26
2022-09-15T15:38:47.401Z,25.06
2022-09-15T15:41:33.361Z,24.94
2022-09-15T15:44:17.119Z,24.76
2022-09-15T15:46:51.234Z,24.65
2022-09-15T15:49:25.927Z,24.66
2022-09-15T15:51:56.819Z,24.65
2022-09-15T15:54:28.265Z,24.66
2022-09-15T15:57:20.319Z,24.64
2022-09-15T15:59:48.763Z,24.58
2022-09-15T16:02:17.087Z,24.40
2022-09-15T16:04:45.531Z,24.39
2022-09-15T16:07:19.181Z,24.30
2022-09-15T16:09:48.949Z,24.16
2022-09-15T16:12:17.223Z,24.05
2022-09-15T16:14:45.304Z,23.97
2022-09-15T16:17:13.989Z,23.86
2022-09-15T16:19:42.099Z,23.75
2022-09-15T16:22:18.641Z,23.61
2022-09-15T16:24:49.266Z,23.54
2022-09-15T16:27:18.887Z,23.41
2022-09-15T16:29:47.143Z,23.33
2022-09-15T16:32:18.922Z,23.29
2022-09-15T16:34:54.357Z,23.16
2022-09-15T16:37:22.496Z,23.13
2022-09-15T16:39:52.616Z,23.03
2022-09-15T16:42:21.262Z,22.94
2022-09-15T16:44:53.415Z,22.80
2022-09-15T16:47:21.577Z,22.72
2022-09-15T16:49:51.508Z,22.64
2022-09-15T16:52:20.168Z,22.56
2022-09-15T16:54:48.853Z,22.49
2022-09-15T16:57:19.687Z,22.45
2022-09-15T16:59:49.813Z,22.40
2022-09-15T17:02:20.670Z,22.35
2022-09-15T17:04:49.302Z,22.29
2022-09-15T17:07:18.857Z,22.27
2022-09-15T17:09:48.743Z,22.16
2022-09-15T17:12:17.769Z,22.08
2022-09-15T17:14:46.733Z,22.00
2022-09-15T17:17:25.551Z,22.00
2022-09-15T17:19:54.199Z,21.97
2022-09-15T17:22:22.528Z,21.99
2022-09-15T17:24:53.453Z,21.98
2022-09-15T17:27:22.611Z,22.01
2022-09-15T17:29:51.702Z,21.98
2022-09-15T17:32:19.866Z,21.99
2022-09-15T17:34:48.225Z,21.98
2022-09-15T17:37:16.523Z,21.93
2022-09-15T17:39:45.423Z,21.87
2022-09-15T17:42:13.795Z,21.75
2022-09-15T17:44:42.175Z,21.65
2022-09-15T17:47:10.190Z,21.57
2022-09-15T17:49:38.421Z,21.49
2022-09-15T17:52:11.055Z,21.41
2022-09-15T17:54:39.238Z,21.33
2022-09-15T17:57:07.669Z,21.25
2022-09-15T17:59:35.718Z,21.17
2022-09-15T18:02:03.998Z,21.06
2022-09-15T18:04:32.318Z,20.99
2022-09-15T18:07:00.402Z,20.97
2022-09-15T18:09:28.602Z,20.91
2022-09-15T18:11:56.935Z,20.80
2022-09-15T18:14:25.035Z,20.83
2022-09-15T18:16:53.309Z,20.76
2022-09-15T18:19:21.374Z,20.70
2022-09-15T18:21:53.560Z,20.66
2022-09-15T18:24:23.364Z,20.67
2022-09-15T18:26:52.449Z,20.59
2022-09-15T18:29:23.758Z,20.48
2022-09-15T18:31:53.054Z,20.41
2022-09-15T18:34:21.022Z,20.39
2022-09-15T18:36:49.049Z,20.30
2022-09-15T18:39:17.594Z,20.27
2022-09-15T18:41:46.447Z,20.25
2022-09-15T18:44:15.069Z,20.21
2022-09-15T18:46:43.245Z,20.16
2022-09-15T18:49:11.430Z,20.11
2022-09-15T18:51:51.230Z,20.06
2022-09-15T18:54:20.094Z,20.03
2022-09-15T18:56:48.123Z,20.01
2022-09-15T18:59:18.141Z,19.99
2022-09-15T19:01:49.853Z,19.95
2022-09-15T19:04:19.011Z,19.86
2022-09-15T19:06:47.852Z,19.79
2022-09-15T19:09:16.096Z,19.71
2022-09-15T19:11:44.294Z,19.62
2022-09-15T19:14:13.100Z,19.55
2022-09-15T19:16:57.203Z,19.58
2022-09-15T19:19:27.734Z,19.54
2022-09-15T19:21:55.856Z,19.49
2022-09-15T19:24:30.572Z,19.46
2022-09-15T19:26:59.248Z,19.40
2022-09-15T19:29:28.062Z,19.44
2022-09-15T19:31:58.456Z,19.41
2022-09-15T19:34:27.114Z,19.46
2022-09-15T19:36:56.101Z,19.52
2022-09-15T19:39:24.900Z,19.45
2022-09-15T19:41:55.277Z,19.49
2022-09-15T19:44:23.889Z,19.53
2022-09-15T19:46:53.256Z,19.55
2022-09-15T19:49:21.628Z,19.59
2022-09-15T19:51:55.351Z,19.62
2022-09-15T19:54:25.107Z,19.65
2022-09-15T19:56:53.469Z,19.65
2022-09-15T19:59:21.823Z,19.70
2022-09-15T20:01:50.005Z,19.68
2022-09-15T20:04:18.485Z,19.72
2022-09-15T20:06:46.767Z,19.71
2022-09-15T20:09:15.673Z,19.70
2022-09-15T20:11:43.977Z,19.69
2022-09-15T20:14:14.473Z,19.72
2022-09-15T20:16:42.756Z,19.73
2022-09-15T20:19:11.044Z,19.72
2022-09-15T20:21:56.584Z,19.73
2022-09-15T20:24:25.545Z,19.76
2022-09-15T20:26:53.903Z,19.74
2022-09-15T20:29:23.405Z,19.71
2022-09-15T20:31:51.787Z,19.65
2022-09-15T20:34:20.066Z,19.59
2022-09-15T20:36:49.064Z,19.57
2022-09-15T20:39:19.605Z,19.54
2022-09-15T20:41:47.878Z,19.46
2022-09-15T20:44:16.159Z,19.44
2022-09-15T20:46:44.868Z,19.44
2022-09-15T20:49:13.542Z,19.46
2022-09-15T20:51:42.367Z,19.50
2022-09-15T20:54:11.095Z,19.53
2022-09-15T20:56:39.190Z,19.57
2022-09-15T20:59:10.388Z,19.52
2022-09-15T21:01:40.135Z,19.58
2022-09-15T21:04:10.251Z,19.60
2022-09-15T21:06:39.017Z,19.59
2022-09-15T21:09:08.160Z,19.59
2022-09-15T21:11:37.042Z,19.61
2022-09-15T21:14:05.104Z,19.62
2022-09-15T21:16:35.009Z,19.58
2022-09-15T21:19:03.784Z,19.59
2022-09-15T21:21:33.737Z,19.58
2022-09-15T21:24:04.773Z,19.58
2022-09-15T21:27:00.993Z,19.54
2022-09-15T21:29:29.681Z,19.48
2022-09-15T21:31:58.150Z,19.41
2022-09-15T21:34:26.522Z,19.44
2022-09-15T21:36:54.679Z,19.45
2022-09-15T21:39:23.070Z,19.42
2022-09-15T21:41:51.239Z,19.34
2022-09-15T21:44:19.276Z,19.35
2022-09-15T21:46:48.444Z,19.39
2022-09-15T21:49:18.156Z,19.36
2022-09-15T21:51:46.562Z,19.40
2022-09-15T21:54:14.960Z,19.41
2022-09-15T21:56:42.919Z,19.38
2022-09-15T21:59:10.928Z,19.35
2022-09-15T22:01:40.029Z,19.34
2022-09-15T22:04:09.053Z,19.38
2022-09-15T22:06:40.770Z,19.38
2022-09-15T22:09:21.442Z,19.42
2022-09-15T22:11:49.556Z,19.47
2022-09-15T22:14:17.993Z,19.46
2022-09-15T22:16:46.331Z,19.41
2022-09-15T22:19:14.413Z,19.42
2022-09-15T22:21:42.878Z,19.44
2022-09-15T22:24:13.665Z,19.43
2022-09-15T22:26:42.975Z,19.39
2022-09-15T22:29:11.959Z,19.40
2022-09-15T22:31:41.101Z,19.36
2022-09-15T22:34:09.965Z,19.34
2022-09-15T22:36:38.315Z,19.31
2022-09-15T22:39:06.716Z,19.30
2022-09-15T22:41:39.060Z,19.23
2022-09-15T22:44:16.888Z,19.19
2022-09-15T22:46:45.081Z,19.18
2022-09-15T22:49:13.019Z,19.17
2022-09-15T22:51:40.967Z,19.14
2022-09-15T22:54:09.102Z,19.12
2022-09-15T22:56:37.152Z,19.09
2022-09-15T22:59:05.211Z,18.99
2022-09-15T23:01:33.467Z,18.96
2022-09-15T23:04:02.731Z,18.92
2022-09-15T23:06:34.994Z,18.89
2022-09-15T23:09:09.670Z,18.87
2022-09-15T23:11:42.792Z,18.85
2022-09-15T23:14:16.516Z,18.83
2022-09-15T23:16:44.550Z,18.85
2022-09-15T23:19:13.647Z,18.84
2022-09-15T23:21:41.821Z,18.77
2022-09-15T23:24:12.593Z,18.82
2022-09-15T23:26:41.166Z,18.74
2022-09-15T23:29:10.209Z,18.72
2022-09-15T23:31:38.417Z,18.75
2022-09-15T23:34:06.510Z,18.73
2022-09-15T23:36:34.437Z,18.75
2022-09-15T23:39:02.521Z,18.73
2022-09-15T23:41:30.612Z,18.75
2022-09-15T23:43:59.964Z,18.70
2022-09-15T23:46:28.090Z,18.67
2022-09-15T23:48:56.064Z,18.64
2022-09-15T23:51:24.243Z,18.63
2022-09-15T23:53:52.758Z,18.60
2022-09-15T23:56:20.921Z,18.58
2022-09-15T23:58:49.706Z,18.58
